sensor_id;sensor_type;location;lat;lon;timestamp;P1;durP1;ratioP1;P2;durP2;ratioP2
1569;SDS011;778;50.120;8.698;2023-04-24T00:02:25;1.53;;;1.30;;
1569;SDS011;778;50.120;8.698;2023-04-24T00:04:53;1.30;;;1.20;;
1569;SDS011;778;50.120;8.698;2023-04-24T00:07:23;1.97;;;1.27;;
1569;SDS011;778;50.120;8.698;2023-04-24T00:09:51;4.00;;;1.27;;
1569;SDS011;778;50.120;8.698;2023-04-24T00:12:19;1.00;;;0.90;;
1569;SDS011;778;50.120;8.698;2023-04-24T00:14:48;1.10;;;1.00;;
1569;SDS011;778;50.120;8.698;2023-04-24T00:17:16;2.10;;;0.80;;
1569;SDS011;778;50.120;8.698;2023-04-24T00:19:48;1.33;;;1.23;;
1569;SDS011;778;50.120;8.698;2023-04-24T00:22:17;2.03;;;1.30;;
1569;SDS011;778;50.120;8.698;2023-04-24T00:24:47;1.20;;;1.10;;
1569;SDS011;778;50.120;8.698;2023-04-24T00:27:15;1.60;;;1.40;;
1569;SDS011;778;50.120;8.698;2023-04-24T00:29:44;1.23;;;1.07;;
1569;SDS011;778;50.120;8.698;2023-04-24T00:32:12;2.30;;;1.40;;
1569;SDS011;778;50.120;8.698;2023-04-24T00:34:41;1.83;;;1.23;;
1569;SDS011;778;50.120;8.698;2023-04-24T00:37:11;1.33;;;1.23;;
1569;SDS011;778;50.120;8.698;2023-04-24T00:39:43;1.83;;;1.50;;
1569;SDS011;778;50.120;8.698;2023-04-24T00:42:12;1.67;;;1.53;;
1569;SDS011;778;50.120;8.698;2023-04-24T00:44:41;1.60;;;1.20;;
1569;SDS011;778;50.120;8.698;2023-04-24T00:47:09;1.70;;;1.40;;
1569;SDS011;778;50.120;8.698;2023-04-24T00:49:39;1.20;;;1.10;;
1569;SDS011;778;50.120;8.698;2023-04-24T00:52:08;3.20;;;1.47;;
1569;SDS011;778;50.120;8.698;2023-04-24T00:54:38;1.53;;;0.90;;
1569;SDS011;778;50.120;8.698;2023-04-24T00:57:07;1.40;;;1.30;;
1569;SDS011;778;50.120;8.698;2023-04-24T00:59:35;1.33;;;1.20;;
1569;SDS011;778;50.120;8.698;2023-04-24T01:02:04;1.83;;;1.67;;
1569;SDS011;778;50.120;8.698;2023-04-24T01:04:34;1.60;;;1.03;;
1569;SDS011;778;50.120;8.698;2023-04-24T01:07:03;3.47;;;1.00;;
1569;SDS011;778;50.120;8.698;2023-04-24T01:09:36;3.53;;;1.10;;
1569;SDS011;778;50.120;8.698;2023-04-24T01:12:08;3.00;;;1.47;;
1569;SDS011;778;50.120;8.698;2023-04-24T01:14:37;1.80;;;1.27;;
1569;SDS011;778;50.120;8.698;2023-04-24T01:17:07;2.87;;;1.33;;
1569;SDS011;778;50.120;8.698;2023-04-24T01:19:35;1.07;;;1.00;;
1569;SDS011;778;50.120;8.698;2023-04-24T01:22:08;2.10;;;1.33;;
1569;SDS011;778;50.120;8.698;2023-04-24T01:24:38;1.00;;;0.90;;
1569;SDS011;778;50.120;8.698;2023-04-24T01:27:08;1.10;;;0.90;;
1569;SDS011;778;50.120;8.698;2023-04-24T01:29:38;1.27;;;1.03;;
1569;SDS011;778;50.120;8.698;2023-04-24T01:32:08;2.53;;;1.10;;
1569;SDS011;778;50.120;8.698;2023-04-24T01:34:37;2.30;;;1.30;;
1569;SDS011;778;50.120;8.698;2023-04-24T01:37:06;1.13;;;1.03;;
1569;SDS011;778;50.120;8.698;2023-04-24T01:39:36;1.80;;;1.33;;
1569;SDS011;778;50.120;8.698;2023-04-24T01:42:05;1.77;;;0.97;;
1569;SDS011;778;50.120;8.698;2023-04-24T01:44:34;1.83;;;1.03;;
1569;SDS011;778;50.120;8.698;2023-04-24T01:47:03;1.63;;;0.77;;
1569;SDS011;778;50.120;8.698;2023-04-24T01:49:33;2.13;;;1.13;;
1569;SDS011;778;50.120;8.698;2023-04-24T01:52:02;1.27;;;1.07;;
1569;SDS011;778;50.120;8.698;2023-04-24T01:54:31;1.10;;;1.00;;
1569;SDS011;778;50.120;8.698;2023-04-24T01:57:00;2.43;;;1.60;;
1569;SDS011;778;50.120;8.698;2023-04-24T01:59:29;2.30;;;1.20;;
1569;SDS011;778;50.120;8.698;2023-04-24T02:01:59;2.10;;;1.07;;
1569;SDS011;778;50.120;8.698;2023-04-24T02:04:27;3.60;;;1.20;;
1569;SDS011;778;50.120;8.698;2023-04-24T02:06:56;1.83;;;1.50;;
1569;SDS011;778;50.120;8.698;2023-04-24T02:09:24;2.10;;;1.77;;
1569;SDS011;778;50.120;8.698;2023-04-24T02:11:54;1.90;;;1.33;;
1569;SDS011;778;50.120;8.698;2023-04-24T02:14:23;2.20;;;1.33;;
1569;SDS011;778;50.120;8.698;2023-04-24T02:16:51;2.33;;;1.10;;
1569;SDS011;778;50.120;8.698;2023-04-24T02:19:20;1.63;;;1.23;;
1569;SDS011;778;50.120;8.698;2023-04-24T02:21:49;3.00;;;1.27;;
1569;SDS011;778;50.120;8.698;2023-04-24T02:24:18;2.33;;;1.10;;
1569;SDS011;778;50.120;8.698;2023-04-24T02:26:46;1.77;;;1.40;;
1569;SDS011;778;50.120;8.698;2023-04-24T02:29:16;1.40;;;1.23;;
1569;SDS011;778;50.120;8.698;2023-04-24T02:31:45;1.13;;;1.03;;
1569;SDS011;778;50.120;8.698;2023-04-24T02:34:13;4.40;;;1.17;;
1569;SDS011;778;50.120;8.698;2023-04-24T02:36:42;1.80;;;1.27;;
1569;SDS011;778;50.120;8.698;2023-04-24T02:39:11;2.07;;;1.40;;
1569;SDS011;778;50.120;8.698;2023-04-24T02:41:39;3.23;;;1.07;;
1569;SDS011;778;50.120;8.698;2023-04-24T02:44:08;5.00;;;1.23;;
1569;SDS011;778;50.120;8.698;2023-04-24T02:46:48;1.30;;;1.20;;
1569;SDS011;778;50.120;8.698;2023-04-24T02:49:17;3.07;;;1.20;;
1569;SDS011;778;50.120;8.698;2023-04-24T02:51:45;1.30;;;0.80;;
1569;SDS011;778;50.120;8.698;2023-04-24T02:54:14;1.50;;;1.40;;
1569;SDS011;778;50.120;8.698;2023-04-24T02:56:42;2.00;;;0.83;;
1569;SDS011;778;50.120;8.698;2023-04-24T02:59:11;1.40;;;1.00;;
1569;SDS011;778;50.120;8.698;2023-04-24T03:01:40;2.10;;;0.80;;
1569;SDS011;778;50.120;8.698;2023-04-24T03:04:09;1.00;;;0.90;;
1569;SDS011;778;50.120;8.698;2023-04-24T03:06:38;4.10;;;1.40;;
1569;SDS011;778;50.120;8.698;2023-04-24T03:09:06;1.43;;;1.00;;
1569;SDS011;778;50.120;8.698;2023-04-24T03:11:35;3.20;;;1.70;;
1569;SDS011;778;50.120;8.698;2023-04-24T03:14:03;3.23;;;1.20;;
1569;SDS011;778;50.120;8.698;2023-04-24T03:16:31;1.30;;;1.07;;
1569;SDS011;778;50.120;8.698;2023-04-24T03:19:02;1.30;;;0.90;;
1569;SDS011;778;50.120;8.698;2023-04-24T03:21:33;3.53;;;1.37;;
1569;SDS011;778;50.120;8.698;2023-04-24T03:24:06;2.07;;;1.10;;
1569;SDS011;778;50.120;8.698;2023-04-24T03:26:36;1.60;;;0.90;;
1569;SDS011;778;50.120;8.698;2023-04-24T03:29:17;3.80;;;1.17;;
1569;SDS011;778;50.120;8.698;2023-04-24T03:31:46;1.13;;;0.90;;
1569;SDS011;778;50.120;8.698;2023-04-24T03:34:16;2.40;;;1.17;;
1569;SDS011;778;50.120;8.698;2023-04-24T03:36:45;1.70;;;1.13;;
1569;SDS011;778;50.120;8.698;2023-04-24T03:39:15;2.20;;;1.20;;
1569;SDS011;778;50.120;8.698;2023-04-24T03:41:50;1.00;;;0.97;;
1569;SDS011;778;50.120;8.698;2023-04-24T03:44:23;1.93;;;1.57;;
1569;SDS011;778;50.120;8.698;2023-04-24T03:46:51;1.20;;;1.10;;
1569;SDS011;778;50.120;8.698;2023-04-24T03:49:23;1.60;;;1.10;;
1569;SDS011;778;50.120;8.698;2023-04-24T03:51:52;1.77;;;1.07;;
1569;SDS011;778;50.120;8.698;2023-04-24T03:54:22;2.27;;;1.33;;
1569;SDS011;778;50.120;8.698;2023-04-24T03:56:52;1.83;;;1.30;;
1569;SDS011;778;50.120;8.698;2023-04-24T03:59:22;1.40;;;1.10;;
1569;SDS011;778;50.120;8.698;2023-04-24T04:02:13;3.57;;;1.60;;
1569;SDS011;778;50.120;8.698;2023-04-24T04:04:43;2.33;;;1.23;;
1569;SDS011;778;50.120;8.698;2023-04-24T04:07:12;1.60;;;0.90;;
1569;SDS011;778;50.120;8.698;2023-04-24T04:09:41;1.33;;;1.20;;
1569;SDS011;778;50.120;8.698;2023-04-24T04:12:10;2.40;;;1.10;;
1569;SDS011;778;50.120;8.698;2023-04-24T04:14:39;1.70;;;0.90;;
1569;SDS011;778;50.120;8.698;2023-04-24T04:17:07;1.43;;;1.33;;
1569;SDS011;778;50.120;8.698;2023-04-24T04:19:36;1.80;;;1.03;;
1569;SDS011;778;50.120;8.698;2023-04-24T04:22:06;1.90;;;1.17;;
1569;SDS011;778;50.120;8.698;2023-04-24T04:24:40;1.10;;;1.00;;
1569;SDS011;778;50.120;8.698;2023-04-24T04:27:09;1.50;;;1.00;;
1569;SDS011;778;50.120;8.698;2023-04-24T04:29:51;1.27;;;1.17;;
1569;SDS011;778;50.120;8.698;2023-04-24T04:32:20;1.43;;;1.00;;
1569;SDS011;778;50.120;8.698;2023-04-24T04:34:48;1.50;;;1.40;;
1569;SDS011;778;50.120;8.698;2023-04-24T04:37:22;3.00;;;2.07;;
1569;SDS011;778;50.120;8.698;2023-04-24T04:40:18;1.60;;;1.30;;
1569;SDS011;778;50.120;8.698;2023-04-24T04:42:53;1.47;;;1.40;;
1569;SDS011;778;50.120;8.698;2023-04-24T04:45:23;3.23;;;1.50;;
1569;SDS011;778;50.120;8.698;2023-04-24T04:48:13;1.63;;;1.37;;
1569;SDS011;778;50.120;8.698;2023-04-24T04:50:45;1.60;;;1.50;;
1569;SDS011;778;50.120;8.698;2023-04-24T04:53:15;2.17;;;1.97;;
1569;SDS011;778;50.120;8.698;2023-04-24T04:55:44;1.97;;;1.87;;
1569;SDS011;778;50.120;8.698;2023-04-24T04:58:14;5.00;;;1.50;;
1569;SDS011;778;50.120;8.698;2023-04-24T05:00:44;2.30;;;1.70;;
1569;SDS011;778;50.120;8.698;2023-04-24T05:03:22;2.03;;;1.83;;
1569;SDS011;778;50.120;8.698;2023-04-24T05:05:57;2.33;;;1.80;;
1569;SDS011;778;50.120;8.698;2023-04-24T05:08:29;1.93;;;1.53;;
1569;SDS011;778;50.120;8.698;2023-04-24T05:10:58;4.17;;;2.13;;
1569;SDS011;778;50.120;8.698;2023-04-24T05:13:28;2.70;;;1.70;;
1569;SDS011;778;50.120;8.698;2023-04-24T05:16:18;4.30;;;2.00;;
1569;SDS011;778;50.120;8.698;2023-04-24T05:18:49;4.93;;;1.87;;
1569;SDS011;778;50.120;8.698;2023-04-24T05:21:22;1.80;;;1.70;;
1569;SDS011;778;50.120;8.698;2023-04-24T05:23:52;2.13;;;2.03;;
1569;SDS011;778;50.120;8.698;2023-04-24T05:26:35;3.97;;;1.97;;
1569;SDS011;778;50.120;8.698;2023-04-24T05:29:03;3.00;;;1.80;;
1569;SDS011;778;50.120;8.698;2023-04-24T05:31:32;1.90;;;1.80;;
1569;SDS011;778;50.120;8.698;2023-04-24T05:34:00;2.83;;;2.07;;
1569;SDS011;778;50.120;8.698;2023-04-24T05:36:29;3.40;;;2.10;;
1569;SDS011;778;50.120;8.698;2023-04-24T05:38:59;9.00;;;2.27;;
1569;SDS011;778;50.120;8.698;2023-04-24T05:41:28;2.73;;;2.50;;
1569;SDS011;778;50.120;8.698;2023-04-24T05:43:56;2.23;;;2.13;;
1569;SDS011;778;50.120;8.698;2023-04-24T05:46:25;2.73;;;2.53;;
1569;SDS011;778;50.120;8.698;2023-04-24T05:48:55;2.80;;;2.60;;
1569;SDS011;778;50.120;8.698;2023-04-24T05:51:23;2.57;;;2.20;;
1569;SDS011;778;50.120;8.698;2023-04-24T05:53:52;2.73;;;2.43;;
1569;SDS011;778;50.120;8.698;2023-04-24T05:56:22;3.43;;;3.13;;
1569;SDS011;778;50.120;8.698;2023-04-24T05:58:51;2.70;;;2.50;;
1569;SDS011;778;50.120;8.698;2023-04-24T06:01:19;3.10;;;2.80;;
1569;SDS011;778;50.120;8.698;2023-04-24T06:03:55;3.00;;;2.80;;
1569;SDS011;778;50.120;8.698;2023-04-24T06:06:24;3.70;;;2.40;;
1569;SDS011;778;50.120;8.698;2023-04-24T06:08:53;7.53;;;2.40;;
1569;SDS011;778;50.120;8.698;2023-04-24T06:11:25;3.60;;;2.57;;
1569;SDS011;778;50.120;8.698;2023-04-24T06:13:54;3.67;;;2.30;;
1569;SDS011;778;50.120;8.698;2023-04-24T06:16:52;2.93;;;1.93;;
1569;SDS011;778;50.120;8.698;2023-04-24T06:19:30;2.23;;;2.03;;
1569;SDS011;778;50.120;8.698;2023-04-24T06:21:59;2.60;;;2.50;;
1569;SDS011;778;50.120;8.698;2023-04-24T06:24:27;2.67;;;2.40;;
1569;SDS011;778;50.120;8.698;2023-04-24T06:26:58;2.37;;;2.10;;
1569;SDS011;778;50.120;8.698;2023-04-24T06:29:27;3.43;;;2.37;;
1569;SDS011;778;50.120;8.698;2023-04-24T06:31:56;2.77;;;2.57;;
1569;SDS011;778;50.120;8.698;2023-04-24T06:34:24;3.30;;;2.40;;
1569;SDS011;778;50.120;8.698;2023-04-24T06:36:53;3.13;;;2.63;;
1569;SDS011;778;50.120;8.698;2023-04-24T06:39:22;2.80;;;2.50;;
1569;SDS011;778;50.120;8.698;2023-04-24T06:41:50;3.00;;;2.70;;
1569;SDS011;778;50.120;8.698;2023-04-24T06:44:20;5.10;;;2.63;;
1569;SDS011;778;50.120;8.698;2023-04-24T06:46:49;2.87;;;2.67;;
1569;SDS011;778;50.120;8.698;2023-04-24T06:49:17;2.40;;;2.20;;
1569;SDS011;778;50.120;8.698;2023-04-24T06:51:46;3.50;;;2.70;;
1569;SDS011;778;50.120;8.698;2023-04-24T06:54:14;2.73;;;2.53;;
1569;SDS011;778;50.120;8.698;2023-04-24T06:56:43;3.10;;;2.80;;
1569;SDS011;778;50.120;8.698;2023-04-24T06:59:12;3.40;;;2.83;;
1569;SDS011;778;50.120;8.698;2023-04-24T07:01:42;2.90;;;2.70;;
1569;SDS011;778;50.120;8.698;2023-04-24T07:04:11;4.10;;;2.70;;
1569;SDS011;778;50.120;8.698;2023-04-24T07:06:40;3.83;;;2.63;;
1569;SDS011;778;50.120;8.698;2023-04-24T07:09:08;3.03;;;2.50;;
1569;SDS011;778;50.120;8.698;2023-04-24T07:11:37;4.90;;;3.40;;
1569;SDS011;778;50.120;8.698;2023-04-24T07:14:07;4.10;;;2.70;;
1569;SDS011;778;50.120;8.698;2023-04-24T07:16:35;2.93;;;2.63;;
1569;SDS011;778;50.120;8.698;2023-04-24T07:19:05;3.17;;;2.27;;
1569;SDS011;778;50.120;8.698;2023-04-24T07:21:33;2.93;;;2.43;;
1569;SDS011;778;50.120;8.698;2023-04-24T07:24:02;3.27;;;3.00;;
1569;SDS011;778;50.120;8.698;2023-04-24T07:26:31;4.13;;;3.17;;
1569;SDS011;778;50.120;8.698;2023-04-24T07:28:59;4.03;;;3.10;;
1569;SDS011;778;50.120;8.698;2023-04-24T07:31:28;3.93;;;3.00;;
1569;SDS011;778;50.120;8.698;2023-04-24T07:33:56;4.50;;;3.27;;
1569;SDS011;778;50.120;8.698;2023-04-24T07:36:26;4.53;;;4.13;;
1569;SDS011;778;50.120;8.698;2023-04-24T07:38:55;75.40;;;6.00;;
1569;SDS011;778;50.120;8.698;2023-04-24T07:41:23;4.20;;;3.27;;
1569;SDS011;778;50.120;8.698;2023-04-24T07:43:54;2.53;;;2.30;;
1569;SDS011;778;50.120;8.698;2023-04-24T07:46:22;2.73;;;2.53;;
1569;SDS011;778;50.120;8.698;2023-04-24T07:48:51;2.97;;;2.73;;
1569;SDS011;778;50.120;8.698;2023-04-24T07:51:39;2.67;;;2.47;;
1569;SDS011;778;50.120;8.698;2023-04-24T07:54:08;3.10;;;2.40;;
1569;SDS011;778;50.120;8.698;2023-04-24T07:56:37;4.80;;;2.83;;
1569;SDS011;778;50.120;8.698;2023-04-24T07:59:06;2.50;;;2.30;;
1569;SDS011;778;50.120;8.698;2023-04-24T08:01:36;3.10;;;2.90;;
1569;SDS011;778;50.120;8.698;2023-04-24T08:04:04;3.30;;;2.90;;
1569;SDS011;778;50.120;8.698;2023-04-24T08:06:33;3.43;;;3.13;;
1569;SDS011;778;50.120;8.698;2023-04-24T08:09:03;5.33;;;3.20;;
1569;SDS011;778;50.120;8.698;2023-04-24T08:11:31;3.63;;;3.33;;
1569;SDS011;778;50.120;8.698;2023-04-24T08:14:00;3.83;;;2.93;;
1569;SDS011;778;50.120;8.698;2023-04-24T08:16:28;3.70;;;3.17;;
1569;SDS011;778;50.120;8.698;2023-04-24T08:18:57;3.50;;;3.20;;
1569;SDS011;778;50.120;8.698;2023-04-24T08:21:25;5.83;;;3.90;;
1569;SDS011;778;50.120;8.698;2023-04-24T08:23:54;3.80;;;3.37;;
1569;SDS011;778;50.120;8.698;2023-04-24T08:26:24;3.97;;;2.80;;
1569;SDS011;778;50.120;8.698;2023-04-24T08:28:53;4.77;;;2.40;;
1569;SDS011;778;50.120;8.698;2023-04-24T08:31:24;3.23;;;2.93;;
1569;SDS011;778;50.120;8.698;2023-04-24T08:33:53;3.60;;;3.30;;
1569;SDS011;778;50.120;8.698;2023-04-24T08:36:21;3.03;;;2.73;;
1569;SDS011;778;50.120;8.698;2023-04-24T08:38:58;3.33;;;2.80;;
1569;SDS011;778;50.120;8.698;2023-04-24T08:41:28;3.40;;;2.50;;
1569;SDS011;778;50.120;8.698;2023-04-24T08:43:57;3.37;;;3.00;;
1569;SDS011;778;50.120;8.698;2023-04-24T08:46:26;3.20;;;3.00;;
1569;SDS011;778;50.120;8.698;2023-04-24T08:48:56;2.90;;;2.63;;
1569;SDS011;778;50.120;8.698;2023-04-24T08:51:28;4.33;;;3.40;;
1569;SDS011;778;50.120;8.698;2023-04-24T08:54:03;3.10;;;2.90;;
1569;SDS011;778;50.120;8.698;2023-04-24T08:56:35;3.20;;;2.90;;
1569;SDS011;778;50.120;8.698;2023-04-24T08:59:05;2.80;;;2.60;;
1569;SDS011;778;50.120;8.698;2023-04-24T09:01:35;2.90;;;2.60;;
1569;SDS011;778;50.120;8.698;2023-04-24T09:04:07;5.00;;;3.37;;
1569;SDS011;778;50.120;8.698;2023-04-24T09:06:39;3.33;;;3.03;;
1569;SDS011;778;50.120;8.698;2023-04-24T09:09:07;2.67;;;2.43;;
1569;SDS011;778;50.120;8.698;2023-04-24T09:11:39;3.83;;;2.63;;
1569;SDS011;778;50.120;8.698;2023-04-24T09:14:08;3.53;;;2.53;;
1569;SDS011;778;50.120;8.698;2023-04-24T09:16:38;3.40;;;2.57;;
1569;SDS011;778;50.120;8.698;2023-04-24T09:19:06;2.60;;;2.40;;
1569;SDS011;778;50.120;8.698;2023-04-24T09:21:36;4.50;;;3.20;;
1569;SDS011;778;50.120;8.698;2023-04-24T09:24:05;3.17;;;2.60;;
1569;SDS011;778;50.120;8.698;2023-04-24T09:26:36;2.57;;;2.37;;
1569;SDS011;778;50.120;8.698;2023-04-24T09:29:05;2.80;;;2.60;;
1569;SDS011;778;50.120;8.698;2023-04-24T09:31:34;3.20;;;2.90;;
1569;SDS011;778;50.120;8.698;2023-04-24T09:34:03;4.00;;;3.10;;
1569;SDS011;778;50.120;8.698;2023-04-24T09:36:34;2.80;;;2.60;;
1569;SDS011;778;50.120;8.698;2023-04-24T09:39:04;3.83;;;2.87;;
1569;SDS011;778;50.120;8.698;2023-04-24T09:41:43;3.47;;;3.17;;
1569;SDS011;778;50.120;8.698;2023-04-24T09:44:14;3.43;;;3.10;;
1569;SDS011;778;50.120;8.698;2023-04-24T09:46:44;3.60;;;2.77;;
1569;SDS011;778;50.120;8.698;2023-04-24T09:49:21;3.10;;;2.80;;
1569;SDS011;778;50.120;8.698;2023-04-24T09:51:52;2.63;;;2.43;;
1569;SDS011;778;50.120;8.698;2023-04-24T09:54:30;2.30;;;2.10;;
1569;SDS011;778;50.120;8.698;2023-04-24T09:56:58;2.63;;;2.43;;
1569;SDS011;778;50.120;8.698;2023-04-24T09:59:28;4.07;;;2.13;;
1569;SDS011;778;50.120;8.698;2023-04-24T10:01:57;3.83;;;2.30;;
1569;SDS011;778;50.120;8.698;2023-04-24T10:04:28;1.90;;;1.80;;
1569;SDS011;778;50.120;8.698;2023-04-24T10:06:57;2.17;;;1.90;;
1569;SDS011;778;50.120;8.698;2023-04-24T10:09:27;2.93;;;2.67;;
1569;SDS011;778;50.120;8.698;2023-04-24T10:11:55;2.10;;;2.00;;
1569;SDS011;778;50.120;8.698;2023-04-24T10:14:24;2.50;;;2.30;;
1569;SDS011;778;50.120;8.698;2023-04-24T10:16:54;2.47;;;2.27;;
1569;SDS011;778;50.120;8.698;2023-04-24T10:19:25;2.43;;;2.23;;
1569;SDS011;778;50.120;8.698;2023-04-24T10:21:54;2.70;;;2.50;;
1569;SDS011;778;50.120;8.698;2023-04-24T10:24:23;2.83;;;2.00;;
1569;SDS011;778;50.120;8.698;2023-04-24T10:26:52;2.30;;;1.97;;
1569;SDS011;778;50.120;8.698;2023-04-24T10:29:23;3.60;;;2.80;;
1569;SDS011;778;50.120;8.698;2023-04-24T10:31:53;2.37;;;2.17;;
1569;SDS011;778;50.120;8.698;2023-04-24T10:34:23;4.43;;;2.30;;
1569;SDS011;778;50.120;8.698;2023-04-24T10:36:52;2.57;;;2.33;;
1569;SDS011;778;50.120;8.698;2023-04-24T10:39:23;2.47;;;2.27;;
1569;SDS011;778;50.120;8.698;2023-04-24T10:41:54;4.33;;;2.93;;
1569;SDS011;778;50.120;8.698;2023-04-24T10:44:24;3.20;;;2.90;;
1569;SDS011;778;50.120;8.698;2023-04-24T10:46:54;2.63;;;2.43;;
1569;SDS011;778;50.120;8.698;2023-04-24T10:49:27;4.00;;;3.27;;
1569;SDS011;778;50.120;8.698;2023-04-24T10:51:59;3.37;;;2.90;;
1569;SDS011;778;50.120;8.698;2023-04-24T10:54:34;3.40;;;3.10;;
1569;SDS011;778;50.120;8.698;2023-04-24T10:57:25;2.90;;;2.70;;
1569;SDS011;778;50.120;8.698;2023-04-24T11:00:10;6.40;;;2.93;;
1569;SDS011;778;50.120;8.698;2023-04-24T11:02:45;4.87;;;2.87;;
1569;SDS011;778;50.120;8.698;2023-04-24T11:05:20;2.73;;;2.53;;
1569;SDS011;778;50.120;8.698;2023-04-24T11:10:43;1.87;;;1.77;;
1569;SDS011;778;50.120;8.698;2023-04-24T11:13:14;2.47;;;1.83;;
1569;SDS011;778;50.120;8.698;2023-04-24T11:15:43;1.53;;;1.43;;
1569;SDS011;778;50.120;8.698;2023-04-24T11:18:14;1.70;;;1.60;;
1569;SDS011;778;50.120;8.698;2023-04-24T11:20:43;1.83;;;1.70;;
1569;SDS011;778;50.120;8.698;2023-04-24T11:23:12;1.60;;;1.50;;
1569;SDS011;778;50.120;8.698;2023-04-24T11:25:41;1.80;;;1.70;;
1569;SDS011;778;50.120;8.698;2023-04-24T11:28:10;2.10;;;1.90;;
1569;SDS011;778;50.120;8.698;2023-04-24T11:30:43;2.80;;;2.47;;
1569;SDS011;778;50.120;8.698;2023-04-24T11:33:12;1.87;;;1.77;;
1569;SDS011;778;50.120;8.698;2023-04-24T11:35:49;2.00;;;1.90;;
1569;SDS011;778;50.120;8.698;2023-04-24T11:38:19;2.37;;;2.27;;
1569;SDS011;778;50.120;8.698;2023-04-24T11:40:50;4.37;;;2.07;;
1569;SDS011;778;50.120;8.698;2023-04-24T11:43:19;2.70;;;2.50;;
1569;SDS011;778;50.120;8.698;2023-04-24T11:45:49;1.97;;;1.87;;
1569;SDS011;778;50.120;8.698;2023-04-24T11:48:18;2.20;;;2.10;;
1569;SDS011;778;50.120;8.698;2023-04-24T11:50:49;1.97;;;1.77;;
1569;SDS011;778;50.120;8.698;2023-04-24T11:53:22;2.40;;;2.10;;
1569;SDS011;778;50.120;8.698;2023-04-24T11:55:50;4.63;;;2.30;;
1569;SDS011;778;50.120;8.698;2023-04-24T11:58:20;2.57;;;1.60;;
1569;SDS011;778;50.120;8.698;2023-04-24T12:00:55;1.73;;;1.63;;
1569;SDS011;778;50.120;8.698;2023-04-24T12:03:28;3.97;;;2.10;;
1569;SDS011;778;50.120;8.698;2023-04-24T12:06:04;2.43;;;1.83;;
1569;SDS011;778;50.120;8.698;2023-04-24T12:08:34;2.87;;;2.03;;
1569;SDS011;778;50.120;8.698;2023-04-24T12:11:05;2.50;;;2.20;;
1569;SDS011;778;50.120;8.698;2023-04-24T12:13:34;2.93;;;2.53;;
1569;SDS011;778;50.120;8.698;2023-04-24T12:16:04;3.50;;;2.70;;
1569;SDS011;778;50.120;8.698;2023-04-24T12:18:34;1.83;;;1.73;;
1569;SDS011;778;50.120;8.698;2023-04-24T12:21:18;1.80;;;1.70;;
1569;SDS011;778;50.120;8.698;2023-04-24T12:23:48;1.93;;;1.73;;
1569;SDS011;778;50.120;8.698;2023-04-24T12:26:18;2.10;;;1.90;;
1569;SDS011;778;50.120;8.698;2023-04-24T12:28:49;1.30;;;1.20;;
1569;SDS011;778;50.120;8.698;2023-04-24T12:31:21;1.30;;;1.20;;
1569;SDS011;778;50.120;8.698;2023-04-24T12:33:51;3.93;;;1.47;;
1569;SDS011;778;50.120;8.698;2023-04-24T12:36:20;4.93;;;1.60;;
1569;SDS011;778;50.120;8.698;2023-04-24T12:38:52;2.27;;;2.07;;
1569;SDS011;778;50.120;8.698;2023-04-24T12:41:21;3.00;;;2.07;;
1569;SDS011;778;50.120;8.698;2023-04-24T12:43:52;1.77;;;1.67;;
1569;SDS011;778;50.120;8.698;2023-04-24T12:46:24;2.87;;;2.10;;
1569;SDS011;778;50.120;8.698;2023-04-24T12:48:53;2.33;;;2.13;;
1569;SDS011;778;50.120;8.698;2023-04-24T12:51:22;2.53;;;2.33;;
1569;SDS011;778;50.120;8.698;2023-04-24T12:53:51;2.90;;;2.70;;
1569;SDS011;778;50.120;8.698;2023-04-24T12:56:22;4.70;;;2.77;;
1569;SDS011;778;50.120;8.698;2023-04-24T12:58:50;5.10;;;3.17;;
1569;SDS011;778;50.120;8.698;2023-04-24T13:01:19;4.27;;;3.47;;
1569;SDS011;778;50.120;8.698;2023-04-24T13:03:47;4.70;;;3.87;;
1569;SDS011;778;50.120;8.698;2023-04-24T13:06:17;6.13;;;3.80;;
1569;SDS011;778;50.120;8.698;2023-04-24T13:08:47;5.57;;;3.50;;
1569;SDS011;778;50.120;8.698;2023-04-24T13:11:15;3.60;;;3.20;;
1569;SDS011;778;50.120;8.698;2023-04-24T13:13:44;4.07;;;3.67;;
1569;SDS011;778;50.120;8.698;2023-04-24T13:16:12;4.97;;;3.67;;
1569;SDS011;778;50.120;8.698;2023-04-24T13:18:41;3.93;;;3.60;;
1569;SDS011;778;50.120;8.698;2023-04-24T13:21:09;5.00;;;4.07;;
1569;SDS011;778;50.120;8.698;2023-04-24T13:23:42;5.83;;;4.53;;
1569;SDS011;778;50.120;8.698;2023-04-24T13:26:11;5.80;;;3.10;;
1569;SDS011;778;50.120;8.698;2023-04-24T13:28:39;4.03;;;3.63;;
1569;SDS011;778;50.120;8.698;2023-04-24T13:31:07;4.07;;;3.77;;
1569;SDS011;778;50.120;8.698;2023-04-24T13:33:36;5.60;;;3.73;;
1569;SDS011;778;50.120;8.698;2023-04-24T13:36:04;8.33;;;3.67;;
1569;SDS011;778;50.120;8.698;2023-04-24T13:38:34;2.80;;;2.60;;
1569;SDS011;778;50.120;8.698;2023-04-24T13:41:04;3.37;;;3.07;;
1569;SDS011;778;50.120;8.698;2023-04-24T13:43:32;4.93;;;2.53;;
1569;SDS011;778;50.120;8.698;2023-04-24T13:46:01;2.57;;;2.37;;
1569;SDS011;778;50.120;8.698;2023-04-24T13:48:30;3.07;;;2.77;;
1569;SDS011;778;50.120;8.698;2023-04-24T13:50:58;2.53;;;2.30;;
1569;SDS011;778;50.120;8.698;2023-04-24T13:53:27;2.97;;;2.60;;
1569;SDS011;778;50.120;8.698;2023-04-24T13:55:55;4.77;;;3.50;;
1569;SDS011;778;50.120;8.698;2023-04-24T13:58:25;3.40;;;3.20;;
1569;SDS011;778;50.120;8.698;2023-04-24T14:00:54;4.03;;;3.47;;
1569;SDS011;778;50.120;8.698;2023-04-24T14:03:23;3.80;;;3.50;;
1569;SDS011;778;50.120;8.698;2023-04-24T14:05:52;4.30;;;3.90;;
1569;SDS011;778;50.120;8.698;2023-04-24T14:08:20;3.97;;;3.67;;
1569;SDS011;778;50.120;8.698;2023-04-24T14:10:49;3.70;;;3.20;;
1569;SDS011;778;50.120;8.698;2023-04-24T14:13:18;4.43;;;3.67;;
1569;SDS011;778;50.120;8.698;2023-04-24T14:15:48;4.30;;;3.90;;
1569;SDS011;778;50.120;8.698;2023-04-24T14:18:16;5.23;;;4.73;;
1569;SDS011;778;50.120;8.698;2023-04-24T14:20:45;3.10;;;2.90;;
1569;SDS011;778;50.120;8.698;2023-04-24T14:23:13;6.43;;;4.70;;
1569;SDS011;778;50.120;8.698;2023-04-24T14:25:44;5.70;;;4.27;;
1569;SDS011;778;50.120;8.698;2023-04-24T14:28:14;4.30;;;3.90;;
1569;SDS011;778;50.120;8.698;2023-04-24T14:30:43;5.20;;;4.20;;
1569;SDS011;778;50.120;8.698;2023-04-24T14:33:13;5.43;;;5.00;;
1569;SDS011;778;50.120;8.698;2023-04-24T14:35:41;4.10;;;3.80;;
1569;SDS011;778;50.120;8.698;2023-04-24T14:38:10;5.70;;;3.67;;
1569;SDS011;778;50.120;8.698;2023-04-24T14:40:39;7.53;;;4.20;;
1569;SDS011;778;50.120;8.698;2023-04-24T14:43:27;4.50;;;3.63;;
1569;SDS011;778;50.120;8.698;2023-04-24T14:45:56;3.63;;;3.33;;
1569;SDS011;778;50.120;8.698;2023-04-24T14:48:26;4.57;;;4.07;;
1569;SDS011;778;50.120;8.698;2023-04-24T14:50:54;5.60;;;3.90;;
1569;SDS011;778;50.120;8.698;2023-04-24T14:53:22;4.60;;;4.20;;
1569;SDS011;778;50.120;8.698;2023-04-24T14:55:51;3.50;;;3.30;;
1569;SDS011;778;50.120;8.698;2023-04-24T14:58:19;3.90;;;3.50;;
1569;SDS011;778;50.120;8.698;2023-04-24T15:00:48;4.47;;;4.07;;
1569;SDS011;778;50.120;8.698;2023-04-24T15:03:18;4.73;;;4.30;;
1569;SDS011;778;50.120;8.698;2023-04-24T15:05:49;11.80;;;5.23;;
1569;SDS011;778;50.120;8.698;2023-04-24T15:08:18;5.00;;;4.50;;
1569;SDS011;778;50.120;8.698;2023-04-24T15:10:46;4.90;;;4.40;;
1569;SDS011;778;50.120;8.698;2023-04-24T15:13:15;6.07;;;5.07;;
1569;SDS011;778;50.120;8.698;2023-04-24T15:15:45;4.83;;;4.33;;
1569;SDS011;778;50.120;8.698;2023-04-24T15:18:14;5.13;;;4.63;;
1569;SDS011;778;50.120;8.698;2023-04-24T15:20:42;14.13;;;5.40;;
1569;SDS011;778;50.120;8.698;2023-04-24T15:23:12;6.73;;;4.27;;
1569;SDS011;778;50.120;8.698;2023-04-24T15:25:40;7.70;;;5.07;;
1569;SDS011;778;50.120;8.698;2023-04-24T15:28:09;5.13;;;4.60;;
1569;SDS011;778;50.120;8.698;2023-04-24T15:30:37;5.50;;;3.83;;
1569;SDS011;778;50.120;8.698;2023-04-24T15:33:06;5.00;;;4.00;;
1569;SDS011;778;50.120;8.698;2023-04-24T15:35:36;6.80;;;3.80;;
1569;SDS011;778;50.120;8.698;2023-04-24T15:38:05;3.73;;;3.43;;
1569;SDS011;778;50.120;8.698;2023-04-24T15:40:35;4.63;;;3.83;;
1569;SDS011;778;50.120;8.698;2023-04-24T15:43:04;5.80;;;3.53;;
1569;SDS011;778;50.120;8.698;2023-04-24T15:45:33;4.00;;;3.50;;
1569;SDS011;778;50.120;8.698;2023-04-24T15:48:01;5.27;;;3.63;;
1569;SDS011;778;50.120;8.698;2023-04-24T15:50:30;4.07;;;3.70;;
1569;SDS011;778;50.120;8.698;2023-04-24T15:52:59;5.00;;;4.43;;